Time;durP1;ratioP1;P1;durP2;ratioP2;P2;SDS_P1;SDS_P2;PMS_P1;PMS_P2;Temp;Humidity;BMP_temperature;BMP_pressure;BME280_temperature;BME280_humidity;BME280_pressure;Samples;Min_cycle;Max_cycle;Signal;HPM_P1;HPM_P2
2023/06/06 00:00:21;;;;;;;3.03;2.20;;;14.90;99.90;;;14.78;100.00;97215.16;5029421;28;20061;-41
2023/06/06 00:02:48;;;;;;;2.83;2.10;;;14.90;99.90;;;14.76;100.00;97221.53;5019737;28;20029;-41
2023/06/06 00:05:16;;;;;;;2.72;1.92;;;14.90;99.90;;;14.70;100.00;97226.22;5026915;28;20385;-40
2023/06/06 00:07:44;;;;;;;2.30;1.90;;;14.80;99.90;;;14.63;100.00;97216.91;5022829;28;20459;-43
2023/06/06 00:10:14;;;;;;;2.60;2.08;;;14.80;99.90;;;14.61;100.00;97220.59;5026633;28;20041;-41
2023/06/06 00:12:46;;;;;;;3.22;2.05;;;14.70;99.90;;;14.57;100.00;97219.00;5024860;28;20230;-42
2023/06/06 00:15:15;;;;;;;2.42;1.73;;;14.70;99.90;;;14.54;100.00;97229.81;5023704;28;20095;-40
2023/06/06 00:17:44;;;;;;;3.30;2.50;;;14.70;99.90;;;14.56;100.00;97220.81;5018745;28;20045;-41
2023/06/06 00:20:11;;;;;;;2.58;1.83;;;14.70;99.90;;;14.52;100.00;97229.88;5025296;28;20029;-42
2023/06/06 00:22:38;;;;;;;2.88;2.20;;;14.70;99.90;;;14.48;100.00;97229.22;5019559;28;20048;-39
2023/06/06 00:25:05;;;;;;;2.92;1.90;;;14.60;99.90;;;14.48;100.00;97225.69;5023903;28;20412;-41
2023/06/06 00:27:35;;;;;;;4.05;2.47;;;14.60;99.90;;;14.44;100.00;97226.78;5026330;28;20544;-40
2023/06/06 00:30:02;;;;;;;2.30;1.77;;;14.60;99.90;;;14.40;100.00;97227.91;5026256;28;20036;-40
2023/06/06 00:32:28;;;;;;;4.22;2.10;;;14.50;99.90;;;14.36;100.00;97229.88;5021858;28;20028;-40
2023/06/06 00:34:57;;;;;;;3.33;2.00;;;14.50;99.90;;;14.31;100.00;97230.13;5020129;28;20666;-42
2023/06/06 00:37:23;;;;;;;5.75;2.30;;;14.50;99.90;;;14.26;100.00;97226.84;5027452;28;20029;-40
2023/06/06 00:39:49;;;;;;;3.15;2.05;;;14.40;99.90;;;14.22;100.00;97225.31;5025697;28;20056;-40
2023/06/06 00:42:15;;;;;;;2.13;1.83;;;14.40;99.90;;;14.18;100.00;97229.09;5024582;28;22249;-42
2023/06/06 00:44:40;;;;;;;2.60;2.10;;;14.30;99.90;;;14.05;100.00;97214.75;5027316;28;20047;-39
2023/06/06 00:47:08;;;;;;;2.70;2.10;;;14.30;99.90;;;14.05;100.00;97223.59;5028688;28;20742;-41
2023/06/06 00:49:36;;;;;;;2.92;1.98;;;14.20;99.90;;;14.04;100.00;97221.00;5030252;28;20025;-39
2023/06/06 00:52:02;;;;;;;2.60;2.10;;;14.20;99.90;;;14.01;100.00;97226.47;5029975;28;20530;-41
2023/06/06 00:54:30;;;;;;;2.40;2.13;;;14.10;99.90;;;13.98;100.00;97223.97;5034188;28;20036;-41
2023/06/06 00:56:56;;;;;;;2.80;2.38;;;14.10;99.90;;;13.93;100.00;97226.91;5027605;28;20037;-41
2023/06/06 00:59:23;;;;;;;3.65;2.47;;;14.10;99.90;;;13.79;100.00;97203.75;5022540;28;20522;-40
2023/06/06 01:01:50;;;;;;;3.70;2.15;;;14.00;99.90;;;13.86;100.00;97229.00;5024494;28;20060;-40
2023/06/06 01:04:17;;;;;;;2.42;2.08;;;14.00;99.90;;;13.80;100.00;97224.03;5021032;28;20106;-40
2023/06/06 01:06:43;;;;;;;2.58;2.13;;;13.90;99.90;;;13.76;100.00;97230.41;5023372;28;20032;-40
2023/06/06 01:09:11;;;;;;;3.83;2.55;;;13.90;99.90;;;13.74;100.00;97224.34;5023727;28;20036;-40
2023/06/06 01:12:16;;;;;;;3.33;2.50;;;13.90;99.90;;;13.69;100.00;97221.06;5041902;28;20026;-41
2023/06/06 01:15:07;;;;;;;2.80;2.08;;;13.80;99.90;;;13.67;100.00;97222.97;5030925;28;20124;-40
2023/06/06 01:17:36;;;;;;;2.30;2.08;;;13.80;99.90;;;13.64;100.00;97225.75;5027925;28;20487;-42
2023/06/06 01:20:06;;;;;;;2.78;2.10;;;13.80;99.90;;;13.62;100.00;97215.25;5022331;28;20296;-40
2023/06/06 01:22:33;;;;;;;2.42;2.20;;;13.80;99.90;;;13.48;100.00;97200.06;5024015;28;20029;-40
2023/06/06 01:24:59;;;;;;;3.55;2.40;;;13.70;99.90;;;13.56;100.00;97216.41;5021942;28;20252;-40
2023/06/06 01:27:27;;;;;;;2.88;2.00;;;13.70;99.90;;;13.49;100.00;97211.53;5027319;28;20268;-40
2023/06/06 01:29:53;;;;;;;3.20;2.40;;;13.70;99.90;;;13.54;100.00;97212.16;5030046;28;20328;-40
2023/06/06 01:32:28;;;;;;;3.25;2.38;;;13.70;99.90;;;13.51;100.00;97222.88;5032068;28;20037;-39
2023/06/06 01:35:07;;;;;;;2.55;2.35;;;13.60;99.90;;;13.47;100.00;97216.03;5023398;28;21017;-41
2023/06/06 01:38:07;;;;;;;3.10;2.33;;;13.60;99.90;;;13.44;100.00;97211.78;5027166;28;20582;-40
2023/06/06 01:40:34;;;;;;;2.90;2.30;;;13.60;99.90;;;13.43;100.00;97209.19;4998922;28;20866;-43
2023/06/06 01:43:03;;;;;;;2.67;2.33;;;13.60;99.90;;;13.39;100.00;97213.81;5026692;28;20033;-41
2023/06/06 01:45:31;;;;;;;3.17;2.33;;;13.50;99.90;;;13.37;100.00;97213.03;5021155;28;20082;-40
2023/06/06 01:47:59;;;;;;;2.72;2.30;;;13.50;99.90;;;13.31;100.00;97213.31;5023775;28;20049;-39
2023/06/06 01:50:25;;;;;;;2.60;2.30;;;13.50;99.90;;;13.29;100.00;97209.88;5021944;28;20044;-40
2023/06/06 01:52:55;;;;;;;3.05;2.50;;;13.50;99.90;;;13.22;100.00;97205.81;5026725;28;20033;-40
2023/06/06 01:55:22;;;;;;;2.63;2.22;;;13.40;99.90;;;13.23;100.00;97212.84;5026169;28;20422;-39
2023/06/06 01:57:48;;;;;;;2.80;2.42;;;13.40;99.90;;;13.21;100.00;97217.31;5027852;28;20395;-39
2023/06/06 02:00:16;;;;;;;2.65;2.28;;;13.40;99.90;;;13.17;100.00;97212.22;5024952;28;20056;-39
2023/06/06 02:02:42;;;;;;;3.05;2.40;;;13.30;99.90;;;13.10;100.00;97202.84;5022947;28;20031;-39
2023/06/06 02:05:08;;;;;;;2.47;2.17;;;13.30;99.90;;;13.14;100.00;97215.00;5026270;28;20029;-39
2023/06/06 02:07:34;;;;;;;3.40;2.65;;;13.30;99.90;;;13.12;100.00;97219.53;5022599;28;20374;-39
2023/06/06 02:10:04;;;;;;;2.83;2.33;;;13.30;99.90;;;13.11;100.00;97216.94;5030364;28;20048;-39
2023/06/06 02:12:31;;;;;;;3.33;2.30;;;13.20;99.90;;;13.08;100.00;97219.75;5028269;28;20086;-41
2023/06/06 02:14:58;;;;;;;3.13;2.47;;;13.20;99.90;;;13.09;100.00;97222.31;5032844;28;20033;-39
2023/06/06 02:17:23;;;;;;;3.47;2.40;;;13.20;99.90;;;13.09;100.00;97232.91;5025421;28;20044;-39
2023/06/06 02:19:49;;;;;;;3.92;2.40;;;13.20;99.90;;;13.08;100.00;97231.22;5027139;28;20039;-40
2023/06/06 02:22:15;;;;;;;3.63;2.30;;;13.20;99.90;;;13.08;100.00;97230.31;5022069;28;20795;-40
2023/06/06 02:24:42;;;;;;;4.20;2.47;;;13.20;99.90;;;13.07;100.00;97226.84;5028036;28;20194;-40
2023/06/06 02:27:09;;;;;;;3.35;2.42;;;13.20;99.90;;;13.04;100.00;97229.63;5021203;28;20052;-39
2023/06/06 02:29:35;;;;;;;2.88;2.40;;;13.20;99.90;;;13.02;100.00;97234.13;5008526;28;20120;-40
2023/06/06 02:32:03;;;;;;;3.10;2.30;;;13.20;99.90;;;12.98;100.00;97230.78;5016225;28;20032;-40
2023/06/06 02:34:29;;;;;;;3.78;2.40;;;13.10;99.90;;;12.96;100.00;97234.47;5023824;28;20784;-39
2023/06/06 02:36:57;;;;;;;3.40;2.55;;;13.10;99.90;;;12.92;100.00;97236.41;5018550;28;20045;-40
2023/06/06 02:39:23;;;;;;;3.00;2.50;;;13.10;99.90;;;12.92;100.00;97235.50;5023201;28;20040;-41
2023/06/06 02:41:50;;;;;;;2.97;2.55;;;13.10;99.90;;;12.92;100.00;97235.50;5014493;28;20068;-40
2023/06/06 02:44:17;;;;;;;3.40;2.58;;;13.10;99.90;;;12.90;100.00;97232.09;5022735;28;20033;-38
2023/06/06 02:46:43;;;;;;;5.07;2.63;;;13.10;99.90;;;12.80;100.00;97226.41;5020111;28;20064;-41
2023/06/06 02:49:09;;;;;;;3.63;2.40;;;13.10;99.90;;;12.87;100.00;97243.69;5021302;28;20025;-39
2023/06/06 02:51:36;;;;;;;2.97;2.53;;;13.00;99.90;;;12.83;100.00;97228.03;5017822;28;20499;-38
2023/06/06 02:54:02;;;;;;;3.53;2.67;;;13.00;99.90;;;12.76;100.00;97225.69;5027519;28;20044;-40
2023/06/06 02:56:29;;;;;;;4.07;2.70;;;13.00;99.90;;;12.77;100.00;97232.69;5022111;28;20071;-40
2023/06/06 02:58:54;;;;;;;4.40;2.25;;;13.00;99.90;;;12.74;100.00;97235.50;5023983;28;20033;-41
2023/06/06 03:01:21;;;;;;;2.78;2.33;;;12.90;99.90;;;12.72;100.00;97240.00;5019176;28;20064;-40
2023/06/06 03:03:47;;;;;;;3.20;2.38;;;12.90;99.90;;;12.71;100.00;97240.09;5027778;28;20083;-40
2023/06/06 03:06:15;;;;;;;3.63;2.90;;;12.90;99.90;;;12.65;100.00;97235.94;5020159;28;20724;-39
2023/06/06 03:08:43;;;;;;;3.47;2.40;;;12.90;99.90;;;12.69;100.00;97250.75;5024661;28;20049;-39
2023/06/06 03:11:09;;;;;;;3.50;2.70;;;12.90;99.90;;;12.67;100.00;97255.25;5022114;28;20046;-39
2023/06/06 03:13:35;;;;;;;4.50;2.83;;;12.80;99.90;;;12.65;100.00;97253.59;5026904;28;20037;-39
2023/06/06 03:16:01;;;;;;;4.55;3.25;;;12.80;99.90;;;12.63;100.00;97255.44;5025566;28;20989;-40
2023/06/06 03:18:27;;;;;;;3.22;2.60;;;12.80;99.90;;;12.58;100.00;97253.03;5020172;28;20040;-39
2023/06/06 03:20:53;;;;;;;3.55;2.80;;;12.80;99.90;;;12.55;100.00;97254.03;5025583;28;20044;-39
2023/06/06 03:23:21;;;;;;;4.40;2.97;;;12.70;99.90;;;12.52;100.00;97261.25;5023857;28;20083;-39
2023/06/06 03:25:51;;;;;;;4.68;3.25;;;12.70;99.90;;;12.51;100.00;97263.06;5025964;28;20044;-38
2023/06/06 03:28:18;;;;;;;3.33;2.60;;;12.70;99.90;;;12.50;100.00;97263.13;5029683;28;20028;-39
2023/06/06 03:30:48;;;;;;;4.20;3.00;;;12.70;99.90;;;12.52;100.00;97269.19;5023244;28;20070;-39
2023/06/06 03:33:15;;;;;;;3.67;2.65;;;12.70;99.90;;;12.53;100.00;97262.97;5025124;28;20022;-39
2023/06/06 03:35:41;;;;;;;5.05;2.70;;;12.70;99.90;;;12.54;100.00;97265.56;5018524;28;20192;-39
2023/06/06 03:38:08;;;;;;;4.55;2.90;;;12.70;99.90;;;12.46;100.00;97256.25;5022413;28;20366;-40
2023/06/06 03:40:34;;;;;;;3.65;2.72;;;12.70;99.90;;;12.55;100.00;97272.53;5026003;28;20482;-40
2023/06/06 03:42:59;;;;;;;4.10;2.90;;;12.70;99.90;;;12.54;100.00;97272.63;5027380;28;20031;-40
2023/06/06 03:45:25;;;;;;;3.78;2.90;;;12.70;99.90;;;12.55;100.00;97269.06;5029752;28;20041;-39
2023/06/06 03:47:51;;;;;;;5.07;2.83;;;12.70;99.90;;;12.57;100.00;97275.13;5022872;28;20552;-40
2023/06/06 03:50:21;;;;;;;4.03;2.90;;;12.80;99.90;;;12.56;100.00;97265.47;5023997;28;20144;-40
2023/06/06 03:52:47;;;;;;;4.40;2.65;;;12.80;99.90;;;12.62;100.00;97274.91;5027865;28;20568;-39
2023/06/06 03:55:13;;;;;;;4.22;2.70;;;12.80;99.90;;;12.61;100.00;97276.69;5028116;28;20037;-38
2023/06/06 03:57:40;;;;;;;2.67;2.40;;;12.80;99.90;;;12.67;100.00;97273.78;5031173;28;20044;-39
2023/06/06 04:00:15;;;;;;;3.88;2.65;;;12.90;99.90;;;12.70;100.00;97272.75;5026111;28;20111;-39
2023/06/06 04:02:41;;;;;;;4.28;3.10;;;12.90;99.90;;;12.73;100.00;97277.91;5024831;28;20044;-39
2023/06/06 04:05:08;;;;;;;3.40;2.97;;;12.90;99.90;;;12.72;100.00;97276.19;5022978;28;20120;-40
2023/06/06 04:07:35;;;;;;;4.40;2.90;;;12.90;99.90;;;12.78;100.00;97275.91;5025642;28;20043;-39
2023/06/06 04:10:02;;;;;;;3.35;2.65;;;12.90;99.90;;;12.76;100.00;97270.69;5030548;28;20033;-39
2023/06/06 04:12:28;;;;;;;4.32;3.10;;;13.00;99.90;;;12.88;100.00;97278.94;5027894;28;20043;-39
2023/06/06 04:14:53;;;;;;;6.63;3.20;;;13.00;99.90;;;12.93;100.00;97279.59;5029665;28;20037;-40
2023/06/06 04:17:20;;;;;;;3.63;2.63;;;13.10;99.90;;;13.00;100.00;97278.38;5025935;28;20568;-40
2023/06/06 04:19:47;;;;;;;5.50;2.95;;;13.20;99.90;;;13.07;100.00;97277.13;5028029;28;20416;-40
2023/06/06 04:22:18;;;;;;;3.40;2.78;;;13.20;99.90;;;13.14;100.00;97278.53;5027963;28;20036;-39
2023/06/06 04:24:44;;;;;;;3.85;2.85;;;13.30;99.90;;;13.22;100.00;97285.25;5023708;28;20048;-39
2023/06/06 04:27:10;;;;;;;3.95;2.95;;;13.40;99.90;;;13.31;100.00;97282.19;5029836;28;20037;-39
2023/06/06 04:29:36;;;;;;;4.97;2.70;;;13.50;99.90;;;13.38;100.00;97291.53;5027917;28;20536;-39
2023/06/06 04:32:07;;;;;;;3.35;2.70;;;13.50;99.90;;;13.42;100.00;97271.91;5029740;28;20029;-39
2023/06/06 04:34:35;;;;;;;4.32;3.03;;;13.60;99.90;;;13.52;100.00;97289.06;5025255;28;20077;-39
2023/06/06 04:37:04;;;;;;;5.40;3.17;;;13.70;99.90;;;13.60;100.00;97296.59;5026051;28;20033;-39
2023/06/06 04:39:32;;;;;;;6.15;3.03;;;13.80;99.90;;;13.68;100.00;97296.22;5022947;28;20029;-40
2023/06/06 04:41:58;;;;;;;3.55;2.80;;;13.90;99.90;;;13.76;100.00;97299.31;5024650;28;20029;-41
2023/06/06 04:44:26;;;;;;;4.65;3.20;;;13.90;99.90;;;13.85;100.00;97296.19;5028108;28;20036;-39
2023/06/06 04:47:00;;;;;;;3.22;2.42;;;14.00;99.90;;;13.89;100.00;97292.47;5026905;28;20036;-39
2023/06/06 04:49:26;;;;;;;4.30;3.20;;;14.10;99.90;;;14.02;100.00;97294.50;5023087;28;20039;-39
2023/06/06 04:51:53;;;;;;;5.25;3.55;;;14.20;99.90;;;14.10;100.00;97300.22;5018911;28;20032;-39
2023/06/06 04:54:19;;;;;;;4.88;3.20;;;14.20;99.90;;;14.20;100.00;97300.63;5025751;28;21768;-39
2023/06/06 04:56:46;;;;;;;5.22;3.28;;;14.30;99.90;;;14.31;100.00;97300.88;5024562;28;20032;-40
2023/06/06 04:59:12;;;;;;;5.63;3.20;;;14.40;99.90;;;14.40;100.00;97307.50;5028155;28;20052;-40
2023/06/06 05:01:41;;;;;;;5.30;3.10;;;14.50;99.90;;;14.46;100.00;97300.09;5020152;28;20083;-38
2023/06/06 05:04:07;;;;;;;2.97;2.47;;;14.60;99.90;;;14.58;100.00;97308.34;5023820;28;20739;-40
2023/06/06 05:06:34;;;;;;;4.68;2.83;;;14.70;99.90;;;14.56;100.00;97295.13;5030858;28;20036;-40
2023/06/06 05:09:03;;;;;;;3.35;2.88;;;14.80;99.90;;;14.71;100.00;97314.66;5024640;28;20426;-38
2023/06/06 05:11:29;;;;;;;5.30;3.60;;;14.80;99.90;;;14.77;100.00;97313.47;5028368;28;20112;-39
2023/06/06 05:13:55;;;;;;;4.70;3.50;;;14.90;99.90;;;14.86;100.00;97313.00;5027453;28;20033;-41
2023/06/06 05:16:21;;;;;;;6.38;3.10;;;15.00;99.90;;;14.96;100.00;97310.66;5029828;28;20094;-38
2023/06/06 05:18:47;;;;;;;4.20;3.20;;;15.10;99.90;;;15.04;100.00;97314.59;5023679;28;20029;-40
2023/06/06 05:21:14;;;;;;;4.10;2.92;;;15.20;99.90;;;15.17;100.00;97312.09;5030435;28;20152;-39
2023/06/06 05:23:40;;;;;;;6.03;3.25;;;15.30;99.90;;;15.33;100.00;97316.56;5032270;28;20025;-39
2023/06/06 05:26:06;;;;;;;7.25;3.65;;;15.40;99.90;;;15.64;100.00;97319.13;5022281;28;20095;-39
2023/06/06 05:28:32;;;;;;;4.97;3.50;;;15.60;99.90;;;16.20;100.00;97319.41;5031424;28;20477;-39
2023/06/06 05:30:57;;;;;;;5.22;3.70;;;15.90;99.90;;;16.42;100.00;97326.91;5026474;28;20040;-39
2023/06/06 05:33:25;;;;;;;7.10;3.50;;;16.10;99.90;;;16.52;100.00;97327.19;5032667;28;20028;-40
2023/06/06 05:35:53;;;;;;;5.30;3.30;;;16.30;99.90;;;16.53;100.00;97331.56;5024851;28;20032;-40
2023/06/06 05:38:19;;;;;;;6.30;3.20;;;16.40;99.90;;;16.52;100.00;97340.50;5031151;28;20396;-39
2023/06/06 05:40:45;;;;;;;4.72;3.40;;;16.40;99.90;;;16.51;100.00;97330.81;5023398;28;20041;-39
2023/06/06 05:43:13;;;;;;;4.15;2.92;;;16.50;99.90;;;16.54;100.00;97343.06;5020912;28;20280;-38
2023/06/06 05:45:39;;;;;;;4.78;3.10;;;16.50;99.90;;;16.47;100.00;97334.59;5019623;28;20076;-39
2023/06/06 05:48:04;;;;;;;4.22;2.92;;;16.60;99.90;;;16.55;100.00;97339.47;5023517;28;20444;-39
2023/06/06 05:50:31;;;;;;;6.55;3.75;;;16.60;99.90;;;16.59;98.69;97339.16;5028876;28;20504;-39
2023/06/06 05:52:56;;;;;;;3.90;3.30;;;16.70;99.90;;;16.69;98.35;97336.78;5026269;28;20477;-39
2023/06/06 05:55:33;;;;;;;5.28;3.50;;;16.70;99.90;;;16.65;92.47;97308.63;5033324;28;20116;-38
2023/06/06 05:58:00;;;;;;;4.50;3.25;;;16.90;99.90;;;16.86;93.30;97341.06;5027943;28;20803;-39
2023/06/06 06:00:29;;;;;;;4.88;3.40;;;16.90;99.90;;;17.01;92.24;97341.06;5026679;28;20208;-39
2023/06/06 06:02:57;;;;;;;4.43;2.70;;;17.00;99.90;;;17.11;91.93;97339.53;5028364;28;20029;-40
2023/06/06 06:05:30;;;;;;;3.92;2.92;;;17.10;99.90;;;17.24;90.72;97340.44;5027041;28;20129;-40
2023/06/06 06:08:00;;;;;;;5.25;2.67;;;17.20;99.90;;;17.36;87.16;97338.78;5030098;28;20091;-39
2023/06/06 06:10:37;;;;;;;3.03;2.72;;;17.40;99.90;;;17.47;88.61;97341.59;5026174;28;20044;-40
2023/06/06 06:13:05;;;;;;;3.85;3.20;;;17.50;99.90;;;17.62;87.12;97347.75;5015368;28;20029;-39
2023/06/06 06:15:32;;;;;;;6.82;2.92;;;17.60;99.90;;;17.73;86.43;97345.22;5031343;28;20035;-39
2023/06/06 06:17:58;;;;;;;4.13;2.75;;;17.70;99.90;;;17.87;83.92;97348.78;5006530;28;20123;-39
2023/06/06 06:20:24;;;;;;;5.53;3.08;;;17.90;99.90;;;17.95;83.29;97341.13;5015005;28;20033;-39
2023/06/06 06:22:50;;;;;;;4.40;2.75;;;17.90;99.90;;;18.06;79.80;97349.25;5007657;28;20056;-38
2023/06/06 06:25:19;;;;;;;4.05;2.95;;;18.00;99.90;;;18.00;81.38;97344.34;5017651;28;20032;-38
2023/06/06 06:27:46;;;;;;;4.47;3.22;;;18.00;99.90;;;18.12;79.88;97353.31;5015234;28;20036;-38
2023/06/06 06:30:13;;;;;;;4.25;2.92;;;18.10;99.90;;;18.27;78.29;97359.44;5019582;28;21268;-38
2023/06/06 06:32:42;;;;;;;7.38;3.72;;;18.20;99.90;;;18.27;75.91;97357.59;5024013;28;20041;-37
2023/06/06 06:35:08;;;;;;;4.75;3.22;;;18.30;99.90;;;18.42;75.74;97362.84;5028556;28;20196;-38
2023/06/06 06:37:39;;;;;;;5.65;3.78;;;18.40;99.90;;;18.46;74.19;97361.66;5026560;28;20111;-38
2023/06/06 06:40:09;;;;;;;5.43;3.30;;;18.40;99.90;;;18.58;73.99;97368.81;5028350;28;20037;-38
2023/06/06 06:42:39;;;;;;;4.97;3.15;;;18.60;99.90;;;18.75;74.44;97370.28;5024027;28;20029;-38
2023/06/06 06:45:08;;;;;;;4.78;3.05;;;18.70;99.90;;;18.85;71.96;97368.72;5014242;28;20086;-38
2023/06/06 06:47:35;;;;;;;6.53;3.33;;;18.80;99.90;;;18.92;72.08;97370.97;5027293;28;20126;-38
2023/06/06 06:50:01;;;;;;;3.92;2.95;;;18.80;99.90;;;19.04;69.38;97372.75;5027849;28;20078;-38
2023/06/06 06:52:27;;;;;;;3.85;2.85;;;18.90;99.90;;;19.18;69.71;97375.28;5028945;28;20025;-38
2023/06/06 06:54:54;;;;;;;4.70;3.10;;;19.00;99.90;;;19.23;65.52;97373.13;5029736;28;20030;-39
2023/06/06 06:57:27;;;;;;;5.70;2.78;;;19.10;99.90;;;19.29;66.38;97370.97;5029133;28;20252;-40
2023/06/06 06:59:53;;;;;;;5.13;3.38;;;19.20;99.90;;;19.32;65.32;97365.41;5019073;28;21021;-38
2023/06/06 07:02:19;;;;;;;6.18;3.65;;;19.30;99.90;;;19.42;64.44;97369.13;5020511;28;20033;-39
2023/06/06 07:04:47;;;;;;;4.05;2.92;;;19.30;99.90;;;19.50;63.20;97369.41;4992826;28;20190;-40
2023/06/06 07:07:16;;;;;;;3.92;2.63;;;19.40;99.30;;;19.61;64.50;97366.81;5020129;28;20197;-38
2023/06/06 07:09:43;;;;;;;5.03;2.70;;;19.50;99.80;;;19.68;62.55;97352.97;5031452;28;20116;-38
2023/06/06 07:12:11;;;;;;;5.40;2.80;;;19.70;99.20;;;19.90;63.09;97377.19;5033179;28;20017;-39
2023/06/06 07:14:37;;;;;;;4.07;2.92;;;19.80;99.20;;;20.01;61.48;97369.19;5025232;28;20029;-38
2023/06/06 07:17:04;;;;;;;7.18;3.17;;;19.90;98.90;;;20.06;60.13;97371.50;5029693;28;20077;-40
2023/06/06 07:19:29;;;;;;;5.93;2.92;;;20.00;98.30;;;20.23;62.24;97370.25;5030239;28;20036;-39
2023/06/06 07:21:56;;;;;;;5.57;3.30;;;20.10;98.80;;;20.28;60.62;97369.88;5017500;28;20033;-38
2023/06/06 07:24:23;;;;;;;4.63;2.75;;;20.20;98.80;;;20.41;59.32;97381.34;5023955;28;20412;-38
2023/06/06 07:26:53;;;;;;;4.97;3.15;;;20.30;98.00;;;20.47;56.04;97372.00;5025086;28;20614;-40
2023/06/06 07:29:21;;;;;;;6.38;3.00;;;20.40;96.90;;;20.50;56.42;97380.66;5027917;28;21010;-40
2023/06/06 07:31:47;;;;;;;6.13;2.97;;;20.50;96.20;;;20.52;53.88;97381.38;5022952;28;20024;-38
2023/06/06 07:34:12;;;;;;;5.63;3.25;;;20.50;95.40;;;20.50;54.38;97379.81;5022823;28;20121;-39
2023/06/06 07:36:38;;;;;;;4.65;3.08;;;20.50;95.50;;;20.55;55.72;97373.09;5029720;28;20080;-38
2023/06/06 07:39:04;;;;;;;6.72;3.50;;;20.50;95.90;;;20.58;52.48;97363.97;5035125;28;20071;-38
2023/06/06 07:41:30;;;;;;;4.75;3.08;;;20.60;94.50;;;20.59;52.99;97371.88;5037819;28;20500;-38
2023/06/06 07:43:57;;;;;;;6.55;3.00;;;20.60;94.90;;;20.68;54.27;97365.00;5016448;28;20115;-39
2023/06/06 07:46:24;;;;;;;9.38;3.03;;;20.60;95.00;;;20.83;51.41;97375.47;5027739;28;20712;-38
2023/06/06 07:48:50;;;;;;;5.30;2.97;;;20.80;94.20;;;20.70;50.60;97372.91;5003861;28;20033;-38
2023/06/06 07:51:35;;;;;;;3.28;2.60;;;20.80;93.50;;;20.73;53.10;97373.53;5020490;28;20079;-39
2023/06/06 07:54:01;;;;;;;3.08;2.67;;;20.70;94.00;;;20.82;57.29;97373.75;5027069;28;20037;-39
2023/06/06 07:56:30;;;;;;;4.47;2.90;;;20.80;95.80;;;20.87;52.61;97369.75;5033011;28;20285;-39
2023/06/06 07:58:57;;;;;;;5.60;3.20;;;20.90;94.50;;;20.88;51.60;97358.03;5019411;28;20527;-40
2023/06/06 08:01:23;;;;;;;4.32;2.58;;;20.90;93.40;;;20.98;52.48;97360.88;5031624;28;20040;-38
2023/06/06 08:03:54;;;;;;;5.85;2.83;;;20.90;94.00;;;21.04;52.76;97367.56;5050114;22;20045;-39
2023/06/06 08:06:23;;;;;;;4.03;2.92;;;21.00;94.40;;;21.09;51.52;97368.88;5033990;28;20448;-39
2023/06/06 08:08:49;;;;;;;5.30;2.85;;;21.10;93.90;;;21.16;51.62;97364.75;5029977;28;20417;-39
2023/06/06 08:11:17;;;;;;;3.97;2.88;;;21.10;93.50;;;21.24;51.33;97366.78;5034245;28;20032;-39
2023/06/06 08:13:43;;;;;;;3.50;2.63;;;21.20;93.30;;;21.21;50.89;97375.09;5030956;28;20028;-40
2023/06/06 08:16:09;;;;;;;3.70;2.67;;;21.10;93.00;;;21.27;51.51;97371.91;5034520;28;20037;-40
2023/06/06 08:18:36;;;;;;;4.70;2.83;;;21.20;93.40;;;21.37;51.31;97380.06;5038723;28;20076;-39
2023/06/06 08:21:01;;;;;;;4.25;3.03;;;21.20;93.20;;;21.34;50.50;97373.13;5031905;28;20159;-38
2023/06/06 08:23:27;;;;;;;4.53;2.80;;;21.30;92.90;;;21.45;53.61;97372.28;5034259;28;20581;-39
2023/06/06 08:25:57;;;;;;;5.13;3.00;;;21.40;93.80;;;21.51;49.26;97366.41;5027428;28;20115;-39
2023/06/06 08:28:26;;;;;;;4.40;3.00;;;21.50;92.60;;;21.45;49.22;97379.44;5008920;28;20474;-39
2023/06/06 08:30:52;;;;;;;3.63;2.58;;;21.50;92.10;;;21.45;48.62;97374.09;5007447;28;20148;-41
2023/06/06 08:33:19;;;;;;;3.70;2.65;;;21.40;91.50;;;21.50;49.70;97370.09;5030384;28;20115;-40
2023/06/06 08:35:46;;;;;;;4.47;3.00;;;21.40;91.90;;;21.47;49.31;97356.06;5034178;28;20420;-40
2023/06/06 08:38:12;;;;;;;3.92;2.88;;;21.50;91.60;;;21.60;51.42;97359.44;5038841;28;20124;-40
2023/06/06 08:40:39;;;;;;;4.75;2.80;;;21.50;92.50;;;21.76;49.67;97366.22;5032848;28;20037;-39
2023/06/06 08:43:10;;;;;;;9.02;2.97;;;21.70;92.20;;;21.86;50.43;97362.66;5033840;28;20400;-40
2023/06/06 08:45:40;;;;;;;5.70;3.42;;;21.80;92.00;;;21.89;49.10;97364.22;5020203;28;20122;-39
2023/06/06 08:48:08;;;;;;;3.70;2.97;;;21.90;91.60;;;21.97;49.75;97361.75;5008000;28;20739;-41
2023/06/06 08:50:35;;;;;;;3.95;2.67;;;21.90;91.90;;;21.97;50.21;97355.53;5007818;28;20324;-40
2023/06/06 08:53:04;;;;;;;4.00;2.90;;;22.00;92.00;;;22.10;48.88;97365.09;5017986;28;20381;-40
2023/06/06 08:55:36;;;;;;;4.57;2.97;;;22.10;91.90;;;22.24;48.20;97365.75;5030490;28;20029;-40
2023/06/06 08:58:03;;;;;;;3.78;2.83;;;22.20;91.30;;;22.28;48.62;97359.19;5032378;28;20602;-39
2023/06/06 09:00:29;;;;;;;5.80;3.30;;;22.20;90.90;;;22.17;48.10;97368.13;5036753;28;20085;-39
2023/06/06 09:02:55;;;;;;;4.90;2.67;;;22.10;90.30;;;22.11;48.31;97366.81;5037597;28;20039;-39
2023/06/06 09:05:21;;;;;;;4.55;3.22;;;22.10;90.50;;;21.99;48.96;97362.47;5035479;28;20035;-39
2023/06/06 09:07:52;;;;;;;3.65;2.90;;;22.00;90.40;;;22.03;47.93;97360.38;5033456;28;20026;-40
2023/06/06 09:10:17;;;;;;;4.35;2.90;;;22.00;90.30;;;21.99;48.75;97364.31;5036663;28;20032;-40
2023/06/06 09:12:48;;;;;;;4.22;2.97;;;22.00;90.60;;;22.09;51.26;97363.41;5035403;28;20029;-38
2023/06/06 09:15:14;;;;;;;3.35;2.72;;;22.00;92.00;;;22.15;47.34;97369.25;5036712;28;20036;-39
2023/06/06 09:17:44;;;;;;;3.83;2.85;;;22.10;89.80;;;22.26;45.25;97370.03;5035344;28;20112;-43
2023/06/06 09:20:15;;;;;;;3.88;2.60;;;22.20;87.10;;;22.18;45.47;97352.84;5037932;28;20044;-38
2023/06/06 09:22:49;;;;;;;7.68;3.08;;;22.20;87.80;;;22.27;47.21;97358.34;5037462;28;20516;-38
2023/06/06 09:25:26;;;;;;;3.67;2.63;;;22.30;89.70;;;22.35;45.11;97354.13;5038843;28;20069;-39
2023/06/06 09:28:03;;;;;;;4.05;2.88;;;22.30;87.20;;;22.27;45.44;97352.97;5033059;28;20037;-38
2023/06/06 09:30:31;;;;;;;3.78;3.00;;;22.30;86.30;;;22.29;45.78;97356.34;5038311;28;20036;-38
2023/06/06 09:33:04;;;;;;;5.50;2.88;;;22.30;87.90;;;22.44;46.61;97358.72;5037837;28;20494;-39
2023/06/06 09:35:42;;;;;;;4.13;2.90;;;22.40;87.50;;;22.55;45.61;97353.25;5037231;28;20025;-38
2023/06/06 09:38:18;;;;;;;6.20;2.90;;;22.50;87.70;;;22.74;45.26;97354.34;5037299;28;20053;-37
2023/06/06 09:40:45;;;;;;;3.42;2.90;;;22.70;86.80;;;22.76;43.39;97358.59;5037772;28;20040;-38
2023/06/06 09:43:12;;;;;;;5.05;3.03;;;22.80;83.80;;;22.77;43.45;97360.28;5038078;28;20033;-39
2023/06/06 09:45:55;;;;;;;3.97;2.92;;;22.80;83.70;;;22.85;44.09;97357.81;5032216;28;20251;-39
2023/06/06 09:48:22;;;;;;;4.40;2.67;;;22.80;83.90;;;22.95;42.80;97363.25;5037405;28;20469;-38
2023/06/06 09:50:48;;;;;;;4.25;2.70;;;22.90;82.70;;;22.92;41.94;97363.50;5033652;28;20047;-38
2023/06/06 09:53:14;;;;;;;5.00;3.40;;;22.90;80.70;;;22.87;42.19;97361.19;5037251;28;20066;-38
2023/06/06 09:55:42;;;;;;;5.45;3.30;;;22.90;81.00;;;22.84;42.17;97360.63;5034288;28;20049;-37
2023/06/06 09:58:11;;;;;;;4.57;3.10;;;22.90;80.00;;;22.66;40.95;97360.38;5031695;28;22346;-39
2023/06/06 10:00:37;;;;;;;5.85;3.00;;;22.80;78.20;;;22.63;42.48;97366.91;5031743;28;20032;-39
2023/06/06 10:03:04;;;;;;;3.70;3.17;;;22.60;80.20;;;22.72;43.86;97356.31;5028949;28;20519;-38
2023/06/06 10:05:32;;;;;;;4.50;3.15;;;22.70;82.60;;;22.63;42.15;97350.78;5031317;28;20184;-40
2023/06/06 10:07:58;;;;;;;4.82;2.90;;;22.60;79.70;;;22.56;42.36;97344.22;5021058;28;20800;-40
2023/06/06 10:10:25;;;;;;;3.72;2.80;;;22.60;80.40;;;22.51;41.90;97348.31;5035132;28;20460;-38
2023/06/06 10:12:54;;;;;;;4.07;3.30;;;22.60;79.50;;;22.59;43.37;97351.16;5017302;28;20033;-39
2023/06/06 10:15:20;;;;;;;6.32;3.38;;;22.60;81.50;;;22.71;42.97;97346.56;5033674;28;20029;-39
2023/06/06 10:17:46;;;;;;;6.38;3.35;;;22.70;82.10;;;22.86;42.51;97339.81;5030790;28;20032;-40